Time;durP1;ratioP1;P1;durP2;ratioP2;P2;SDS_P1;SDS_P2;PMS_P1;PMS_P2;Temp;Humidity;BMP_temperature;BMP_pressure;BME280_temperature;BME280_humidity;BME280_pressure;Samples;Min_cycle;Max_cycle;Signal;HPM_P1;HPM_P2
2024/03/27 00:01:51;;;;;;;;;;;9.30;99.90;;;8.15;100.00;94963.13;4959879;28;1609;-69
2024/03/27 00:04:17;;;;;;;;;;;9.20;99.90;;;8.18;100.00;94973.22;4959499;28;1992;-69
2024/03/27 00:06:43;;;;;;;;;;;9.20;99.90;;;7.91;100.00;94981.28;4959335;28;2439;-69
2024/03/27 00:09:13;;;;;;;;;;;8.90;99.90;;;7.80;100.00;94986.41;4992670;28;2201;-68
2024/03/27 00:11:39;;;;;;;;;;;8.80;99.90;;;7.73;100.00;94987.75;4959622;28;1773;-69
2024/03/27 00:14:05;;;;;;;;;;;8.80;99.90;;;7.75;100.00;94976.41;4959753;28;1724;-68
2024/03/27 00:16:31;;;;;;;;;;;8.80;99.90;;;7.74;100.00;94974.75;4957160;28;1541;-68
2024/03/27 00:18:57;;;;;;;;;;;8.80;99.90;;;7.83;100.00;94978.41;4958311;28;1908;-69
2024/03/27 00:21:22;;;;;;;;;;;8.80;99.90;;;7.70;100.00;94977.66;4928787;28;1527;-69
2024/03/27 00:23:48;;;;;;;;;;;8.80;99.90;;;7.56;100.00;94983.00;4960781;28;3164;-69
2024/03/27 00:26:14;;;;;;;;;;;8.70;99.90;;;7.54;100.00;94978.75;4960920;28;2403;-69
2024/03/27 00:28:40;;;;;;;;;;;8.60;99.90;;;7.41;100.00;94979.75;4961922;28;1619;-68
2024/03/27 00:31:06;;;;;;;;;;;8.50;99.90;;;7.28;100.00;94972.09;4961924;28;1740;-69
2024/03/27 00:33:32;;;;;;;;;;;8.50;99.90;;;7.26;100.00;94966.22;4962026;28;1768;-68
2024/03/27 00:35:58;;;;;;;;;;;8.40;99.90;;;7.33;100.00;94975.16;4944124;28;1751;-69
2024/03/27 00:38:24;;;;;;;;;;;8.40;99.90;;;7.23;100.00;94976.72;4959780;28;1414;-69
2024/03/27 00:40:51;;;;;;;;;;;8.40;99.90;;;7.17;100.00;94984.91;4990181;28;2013;-68
2024/03/27 00:43:17;;;;;;;;;;;8.30;99.90;;;7.16;100.00;94986.69;4959440;28;1922;-68
2024/03/27 00:45:43;;;;;;;;;;;8.30;99.90;;;7.17;100.00;94984.91;4957407;28;1581;-69
2024/03/27 00:48:09;;;;;;;;;;;8.20;99.90;;;7.21;100.00;94974.28;4941892;28;1710;-69
2024/03/27 00:50:36;;;;;;;;;;;8.20;99.90;;;7.24;100.00;94970.66;4959376;28;1515;-68
2024/03/27 00:53:03;;;;;;;;;;;8.30;99.90;;;7.17;100.00;94959.94;4991054;28;1227;-69
2024/03/27 00:55:29;;;;;;;;;;;8.30;99.90;;;7.08;100.00;94950.28;4974127;28;2069;-69
2024/03/27 00:57:56;;;;;;;;;;;8.30;99.90;;;7.14;100.00;94942.09;4959833;28;1729;-69
2024/03/27 01:00:22;;;;;;;;;;;8.30;99.90;;;7.03;100.00;94942.03;4972847;28;1824;-69
2024/03/27 01:02:48;;;;;;;;;;;8.30;99.90;;;7.16;100.00;94942.81;4974577;28;1899;-68
2024/03/27 01:05:17;;;;;;;;;;;8.20;99.90;;;6.96;100.00;94951.16;4944380;28;1627;-68
2024/03/27 01:07:43;;;;;;;;;;;8.20;99.90;;;6.89;100.00;94946.41;4960941;28;1464;-69
2024/03/27 01:10:10;;;;;;;;;;;8.10;99.90;;;7.04;100.00;94925.63;4958075;28;3305;-69
2024/03/27 01:12:39;;;;;;;;;;;8.10;99.90;;;7.08;100.00;94907.25;4991510;28;1723;-69
2024/03/27 01:15:06;;;;;;;;;;;8.10;99.90;;;7.10;100.00;94897.63;4957123;28;2376;-69
2024/03/27 01:17:32;;;;;;;;;;;8.10;99.90;;;7.16;100.00;94895.53;4960414;28;1639;-69
2024/03/27 01:19:59;;;;;;;;;;;8.10;99.90;;;6.94;100.00;94898.84;4971674;28;1618;-69
2024/03/27 01:22:25;;;;;;;;;;;8.00;99.90;;;6.88;100.00;94900.09;4991522;28;1902;-69
2024/03/27 01:24:51;;;;;;;;;;;7.90;99.90;;;6.82;100.00;94911.69;4943712;28;1608;-69
2024/03/27 01:27:17;;;;;;;;;;;7.70;99.90;;;6.52;100.00;94901.72;4958319;28;2203;-69
2024/03/27 01:29:43;;;;;;;;;;;7.60;99.90;;;6.66;100.00;94893.88;4962636;28;1956;-69
2024/03/27 01:32:09;;;;;;;;;;;7.70;99.90;;;6.66;100.00;94886.16;4961482;28;1520;-69
2024/03/27 01:34:35;;;;;;;;;;;7.70;99.90;;;6.77;100.00;94889.72;4926084;28;1717;-68
2024/03/27 01:37:01;;;;;;;;;;;7.70;99.90;;;6.66;100.00;94898.19;4975147;28;1632;-70
2024/03/27 01:39:27;;;;;;;;;;;7.60;99.90;;;6.47;100.00;94896.91;4959965;28;1725;-69
2024/03/27 01:41:53;;;;;;;;;;;7.30;99.90;;;6.34;100.00;94905.59;4959499;28;1753;-69
2024/03/27 01:44:20;;;;;;;;;;;7.10;99.90;;;6.43;100.00;94902.38;4958662;28;1911;-69
2024/03/27 01:46:50;;;;;;;;;;;7.10;99.90;;;6.44;100.00;94911.75;4961034;28;1749;-69
2024/03/27 01:49:17;;;;;;;;;;;7.10;99.90;;;6.37;100.00;94916.50;4941512;28;1453;-68
2024/03/27 01:51:44;;;;;;;;;;;7.20;99.90;;;6.28;100.00;94920.53;4958610;28;1552;-69
2024/03/27 01:54:12;;;;;;;;;;;7.20;99.90;;;6.34;100.00;94914.16;4959822;28;1769;-69
2024/03/27 01:56:37;;;;;;;;;;;7.30;99.90;;;6.39;100.00;94916.41;4943141;28;1894;-69
2024/03/27 01:59:04;;;;;;;;;;;7.40;99.90;;;6.51;100.00;94902.69;4958786;28;3285;-69
2024/03/27 02:01:31;;;;;;;;;;;7.50;99.90;;;6.58;100.00;94900.50;4977733;28;1503;-69
2024/03/27 02:03:56;;;;;;;;;;;7.60;99.90;;;6.62;100.00;94894.22;4962316;28;2181;-69
2024/03/27 02:06:22;;;;;;;;;;;7.70;99.90;;;6.73;100.00;94899.44;4961930;28;1721;-69
2024/03/27 02:08:52;;;;;;;;;;;7.70;99.90;;;6.63;100.00;94896.66;4943326;28;1790;-69
2024/03/27 02:11:17;;;;;;;;;;;7.70;99.90;;;6.63;100.00;94894.09;4960116;28;2224;-69
2024/03/27 02:13:44;;;;;;;;;;;7.70;99.90;;;6.80;100.00;94898.06;4957677;28;1290;-69
2024/03/27 02:16:10;;;;;;;;;;;7.80;99.90;;;6.84;100.00;94896.09;4958974;28;1611;-69
2024/03/27 02:18:36;;;;;;;;;;;7.80;99.90;;;6.65;100.00;94905.09;4990682;28;2185;-69
2024/03/27 02:21:02;;;;;;;;;;;7.90;99.90;;;6.67;100.00;94898.09;4960801;28;1992;-69
2024/03/27 02:23:31;;;;;;;;;;;;;;;6.59;100.00;94889.25;4965738;28;1902;-69
2024/03/27 02:26:08;;;;;;;;;;;7.70;99.90;;;6.81;100.00;94886.00;4964129;28;2353;-69
2024/03/27 02:28:34;;;;;;;;;;;7.70;99.90;;;6.73;100.00;94893.44;4958512;28;1601;-69
2024/03/27 02:31:00;;;;;;;;;;;7.90;99.90;;;6.81;100.00;94896.31;4959524;28;2197;-69
2024/03/27 02:33:25;;;;;;;;;;;7.90;99.90;;;6.89;100.00;94900.00;4962295;28;1447;-69
2024/03/27 02:35:51;;;;;;;;;;;7.90;99.90;;;7.01;100.00;94907.81;4962453;28;1593;-69
2024/03/27 02:38:17;;;;;;;;;;;8.00;99.90;;;7.07;100.00;94899.59;4996233;28;1432;-69
2024/03/27 02:40:43;;;;;;;;;;;8.00;99.90;;;7.10;100.00;94897.63;4961757;28;1630;-69
2024/03/27 02:43:09;;;;;;;;;;;8.10;99.90;;;7.20;100.00;94895.22;4962767;28;1922;-69
2024/03/27 02:45:34;;;;;;;;;;;8.10;99.90;;;7.26;100.00;94892.19;4961450;28;1647;-70
2024/03/27 02:48:00;;;;;;;;;;;8.20;99.90;;;7.17;100.00;94885.13;4961286;28;1761;-69
2024/03/27 02:50:27;;;;;;;;;;;8.10;99.90;;;7.01;100.00;94876.84;4960506;28;1562;-69
2024/03/27 02:52:52;;;;;;;;;;;8.10;99.90;;;6.97;100.00;94860.75;4958429;28;1609;-69
2024/03/27 02:55:18;;;;;;;;;;;8.10;99.90;;;7.18;100.00;94848.06;4959644;28;3121;-69
2024/03/27 02:57:44;;;;;;;;;;;8.10;99.90;;;7.13;100.00;94856.13;4956201;28;1623;-69
2024/03/27 03:00:10;;;;;;;;;;;8.20;99.90;;;6.81;100.00;94849.91;4961172;28;1728;-69
2024/03/27 03:02:37;;;;;;;;;;;8.10;99.90;;;6.68;100.00;94845.63;4992944;28;2005;-69
2024/03/27 03:05:02;;;;;;;;;;;7.80;99.90;;;6.53;100.00;94844.13;4963271;28;1625;-69
2024/03/27 03:07:28;;;;;;;;;;;7.60;99.90;;;6.45;100.00;94828.38;4962268;28;1749;-69
2024/03/27 03:09:54;;;;;;;;;;;7.40;99.90;;;6.36;100.00;94829.84;4961118;28;2404;-69
2024/03/27 03:12:20;;;;;;;;;;;7.40;99.90;;;6.12;100.00;94832.38;4962473;28;1396;-69
2024/03/27 03:14:46;;;;;;;;;;;7.30;99.90;;;6.14;100.00;94825.38;4975349;28;1531;-69
2024/03/27 03:17:12;;;;;;;;;;;7.20;99.90;;;6.24;100.00;94813.47;4959862;28;1885;-70
2024/03/27 03:19:38;;;;;;;;;;;7.10;99.90;;;6.33;100.00;94803.47;4975193;28;1873;-69
2024/03/27 03:22:04;;;;;;;;;;;7.10;99.90;;;6.32;100.00;94814.69;4959084;28;2295;-69
2024/03/27 03:24:30;;;;;;;;;;;7.10;99.90;;;6.14;100.00;94820.22;4975741;28;1987;-69
2024/03/27 03:27:14;;;;;;;;;;;7.00;99.90;;;5.93;100.00;94831.94;4975079;28;1114;-69
2024/03/27 03:29:40;;;;;;;;;;;6.90;99.90;;;5.89;100.00;94827.97;4976706;28;1770;-69
2024/03/27 03:32:06;;;;;;;;;;;6.70;99.90;;;5.85;100.00;94824.75;4992688;28;1610;-69
2024/03/27 03:34:32;;;;;;;;;;;6.70;99.90;;;5.73;100.00;94833.31;4963902;28;1570;-69
2024/03/27 03:36:58;;;;;;;;;;;6.70;99.90;;;5.87;100.00;94840.91;4961102;28;3181;-69
2024/03/27 03:39:24;;;;;;;;;;;6.80;99.90;;;5.91;100.00;94834.63;4962260;28;1683;-69
2024/03/27 03:41:50;;;;;;;;;;;6.90;99.90;;;5.98;100.00;94825.59;4960522;28;1544;-69
2024/03/27 03:44:16;;;;;;;;;;;6.90;99.90;;;5.99;100.00;94822.09;4958635;28;1906;-69
2024/03/27 03:46:42;;;;;;;;;;;7.00;99.90;;;6.15;100.00;94834.72;4960081;28;1611;-69
2024/03/27 03:49:07;;;;;;;;;;;7.10;99.90;;;6.07;100.00;94849.91;4960928;28;1583;-69
2024/03/27 03:51:33;;;;;;;;;;;7.10;99.90;;;5.90;100.00;94866.44;4960653;28;2108;-69
2024/03/27 03:53:59;;;;;;;;;;;6.90;99.90;;;5.98;100.00;94876.28;4962363;28;1743;-69
2024/03/27 03:56:25;;;;;;;;;;;6.90;99.90;;;6.05;100.00;94887.81;4964282;28;1760;-69
2024/03/27 03:58:51;;;;;;;;;;;7.00;99.90;;;6.18;100.00;94901.50;4964124;28;1614;-69
2024/03/27 04:01:17;;;;;;;;;;;7.00;99.90;;;6.15;100.00;94901.69;4964659;28;1731;-69
2024/03/27 04:03:43;;;;;;;;;;;7.10;99.90;;;6.40;100.00;94906.00;4961559;28;2438;-69
2024/03/27 04:06:10;;;;;;;;;;;7.20;99.90;;;6.53;100.00;94898.25;4963676;28;2590;-69
2024/03/27 04:08:36;;;;;;;;;;;7.30;99.90;;;6.69;100.00;94893.66;4963114;28;1615;-69
2024/03/27 04:11:02;;;;;;;;;;;7.40;99.90;;;6.61;100.00;94903.66;4963540;28;1779;-69
2024/03/27 04:13:28;;;;;;;;;;;7.60;99.90;;;6.64;100.00;94910.41;4993750;28;1898;-69
2024/03/27 04:15:54;;;;;;;;;;;7.60;99.90;;;6.66;100.00;94911.94;4964945;28;1592;-69
2024/03/27 04:18:20;;;;;;;;;;;7.60;99.90;;;6.85;100.00;94908.06;4962013;28;1755;-69
2024/03/27 04:20:46;;;;;;;;;;;7.70;99.90;;;6.92;100.00;94906.69;4995423;28;3122;-69
2024/03/27 04:23:12;;;;;;;;;;;7.80;99.90;;;7.12;100.00;94913.84;4980664;28;1773;-69
2024/03/27 04:25:38;;;;;;;;;;;7.80;99.90;;;7.15;100.00;94927.44;4964358;28;2428;-69
2024/03/27 04:28:04;;;;;;;;;;;7.80;99.90;;;7.02;100.00;94935.22;4991799;28;1602;-69
2024/03/27 04:30:30;;;;;;;;;;;7.80;99.90;;;7.08;100.00;94925.28;4963146;28;1632;-69
2024/03/27 04:32:56;;;;;;;;;;;7.90;99.90;;;7.12;100.00;94921.56;4991693;28;1906;-69
2024/03/27 04:35:22;;;;;;;;;;;7.90;99.90;;;7.20;100.00;94917.63;4960426;28;2307;-69
2024/03/27 04:37:48;;;;;;;;;;;8.10;99.90;;;7.44;100.00;94921.00;4962525;28;1397;-69
2024/03/27 04:40:14;;;;;;;;;;;8.20;99.90;;;7.55;100.00;94917.66;4963067;28;1783;-69
2024/03/27 04:42:40;;;;;;;;;;;8.20;99.90;;;7.56;100.00;94913.31;4975654;28;1644;-69
2024/03/27 04:45:07;;;;;;;;;;;8.20;99.90;;;7.25;100.00;94903.47;4960957;28;1763;-69
2024/03/27 04:47:34;;;;;;;;;;;8.20;99.90;;;7.20;100.00;94897.78;4977912;28;1598;-69
2024/03/27 04:50:01;;;;;;;;;;;8.20;99.90;;;7.29;100.00;94893.72;4960215;28;1798;-69
2024/03/27 04:52:27;;;;;;;;;;;8.20;99.90;;;7.37;100.00;94903.47;4994442;28;1982;-69
2024/03/27 04:54:53;;;;;;;;;;;8.20;99.90;;;7.40;100.00;94900.69;4964874;28;1457;-69
2024/03/27 04:57:19;;;;;;;;;;;8.10;99.90;;;7.39;100.00;94889.56;4963534;28;1617;-69
2024/03/27 04:59:45;;;;;;;;;;;8.10;99.90;;;7.38;100.00;94887.91;4978157;28;1654;-69
2024/03/27 05:02:11;;;;;;;;;;;8.10;99.90;;;7.31;100.00;94891.88;4975890;28;2988;-69
2024/03/27 05:04:38;;;;;;;;;;;8.10;99.90;;;7.42;100.00;94891.91;4961298;28;1825;-69
2024/03/27 05:07:04;;;;;;;;;;;8.20;99.90;;;7.50;100.00;94889.59;4961993;28;1743;-69
2024/03/27 05:09:30;;;;;;;;;;;8.20;99.90;;;7.35;100.00;94895.06;4964358;28;1393;-69
2024/03/27 05:12:01;;;;;;;;;;;8.30;99.90;;;7.66;100.00;94906.53;4977843;28;1606;-69
2024/03/27 05:14:27;;;;;;;;;;;8.40;99.90;;;7.69;100.00;94903.72;4944146;28;1997;-69
2024/03/27 05:16:54;;;;;;;;;;;8.50;99.90;;;7.70;100.00;94906.19;4960073;28;1479;-69
2024/03/27 05:19:20;;;;;;;;;;;8.60;99.90;;;7.56;100.00;94895.25;4974366;28;1420;-69
2024/03/27 05:21:46;;;;;;;;;;;8.60;99.90;;;7.73;100.00;94892.22;4960980;28;1425;-69
2024/03/27 05:24:12;;;;;;;;;;;8.60;99.90;;;7.72;100.00;94888.00;4976329;28;1598;-69
2024/03/27 05:26:38;;;;;;;;;;;8.70;99.90;;;7.67;100.00;94882.38;4960134;28;1574;-69
2024/03/27 05:29:04;;;;;;;;;;;8.60;99.90;;;7.69;100.00;94888.25;4960454;28;1639;-69
2024/03/27 05:31:30;;;;;;;;;;;8.70;99.90;;;7.63;100.00;94889.50;4960175;28;2071;-69
2024/03/27 05:33:56;;;;;;;;;;;8.70;99.90;;;7.55;100.00;94881.53;4992388;28;1983;-69
2024/03/27 05:36:23;;;;;;;;;;;8.60;99.90;;;7.42;100.00;94885.94;4962896;28;1604;-69
2024/03/27 05:38:48;;;;;;;;;;;8.60;99.90;;;7.53;100.00;94889.38;4961129;28;1636;-69
2024/03/27 05:41:14;;;;;;;;;;;8.50;99.90;;;7.40;100.00;94891.19;4962658;28;1833;-70
2024/03/27 05:43:41;;;;;;;;;;;8.50;99.90;;;7.50;100.00;94897.34;4961110;28;1596;-69
2024/03/27 05:46:06;;;;;;;;;;;8.50;99.90;;;7.49;100.00;94898.25;4975819;28;3127;-69
2024/03/27 05:48:33;;;;;;;;;;;8.40;99.90;;;7.47;100.00;94897.56;4961326;28;1561;-69
2024/03/27 05:50:58;;;;;;;;;;;8.40;99.90;;;7.43;100.00;94901.28;4962207;28;1634;-69
2024/03/27 05:53:24;;;;;;;;;;;8.40;99.90;;;7.51;100.00;94895.59;4961832;28;1984;-69
2024/03/27 05:55:55;;;;;;;;;;;8.50;99.90;;;7.54;100.00;94901.31;4962122;28;1744;-69
2024/03/27 05:58:21;;;;;;;;;;;8.50;99.90;;;7.63;100.00;94901.59;4977787;28;2394;-69
2024/03/27 06:00:46;;;;;;;;;;;8.50;99.90;;;7.64;100.00;94898.91;4962809;28;2547;-69
2024/03/27 06:03:13;;;;;;;;;;;8.50;99.90;;;7.86;100.00;94899.88;4959529;28;2454;-69
2024/03/27 06:05:39;;;;;;;;;;;8.50;99.90;;;7.97;100.00;94887.00;4962450;28;1765;-69
2024/03/27 06:08:06;;;;;;;;;;;8.70;99.90;;;8.11;100.00;94884.19;4960536;28;1665;-69
2024/03/27 06:10:32;;;;;;;;;;;8.70;99.90;;;8.08;100.00;94881.03;4976485;28;1549;-69
2024/03/27 06:13:03;;;;;;;;;;;8.80;99.90;;;8.10;100.00;94890.31;4960934;28;1934;-69
2024/03/27 06:15:32;;;;;;;;;;;8.80;99.90;;;8.00;100.00;94901.44;4962685;28;1487;-70
2024/03/27 06:17:59;;;;;;;;;;;8.90;99.90;;;8.07;100.00;94897.44;4975960;28;2130;-69
2024/03/27 06:20:25;;;;;;;;;;;8.90;99.90;;;7.97;100.00;94898.16;4959629;28;2588;-69
2024/03/27 06:22:50;;;;;;;;;;;8.90;99.90;;;8.02;100.00;94887.47;4975695;28;1578;-69
2024/03/27 06:25:19;;;;;;;;;;;8.90;99.90;;;8.00;100.00;94894.50;4959910;28;3630;-70
2024/03/27 06:27:45;;;;;;;;;;;9.00;99.90;;;8.01;100.00;94893.59;4960830;28;2728;-70
2024/03/27 06:30:12;;;;;;;;;;;9.00;99.90;;;8.16;100.00;94894.16;4973595;28;2584;-69
2024/03/27 06:32:39;;;;;;;;;;;8.90;99.90;;;8.17;100.00;94904.41;4990301;28;1907;-69
2024/03/27 06:35:06;;;;;;;;;;;8.90;99.90;;;7.97;100.00;94905.88;4980238;28;1590;-69
2024/03/27 06:37:32;;;;;;;;;;;8.90;99.90;;;7.96;100.00;94906.03;4959622;28;1380;-69
2024/03/27 06:39:59;;;;;;;;;;;8.90;99.90;;;8.10;100.00;94910.16;4974631;28;1511;-69
2024/03/27 06:42:25;;;;;;;;;;;8.90;99.90;;;8.22;100.00;94905.81;4958865;28;1602;-69
2024/03/27 06:44:51;;;;;;;;;;;8.80;99.90;;;8.02;100.00;94913.28;4960533;28;2222;-69
2024/03/27 06:47:26;;;;;;;;;;;8.80;99.90;;;7.88;100.00;94914.31;4989182;28;1468;-69
2024/03/27 06:49:52;;;;;;;;;;;8.80;99.90;;;7.99;100.00;94918.69;4975223;28;1615;-69
2024/03/27 06:52:19;;;;;;;;;;;8.80;99.90;;;8.06;100.00;94917.31;4957195;28;1501;-70
2024/03/27 06:54:48;;;;;;;;;;;8.80;99.90;;;7.99;100.00;94918.69;4975645;28;1580;-69
2024/03/27 06:57:14;;;;;;;;;;;8.80;99.90;;;7.98;100.00;94917.03;4959768;28;2119;-69
2024/03/27 06:59:40;;;;;;;;;;;8.60;99.90;;;7.96;100.00;94916.34;4958362;28;1883;-69
2024/03/27 07:02:07;;;;;;;;;;;8.70;99.90;;;8.19;100.00;94912.03;4962483;28;1566;-69
2024/03/27 07:04:32;;;;;;;;;;;8.80;99.90;;;8.19;100.00;94906.88;4958790;28;1657;-69
2024/03/27 07:06:58;;;;;;;;;;;8.80;99.90;;;8.07;100.00;94905.19;4928495;28;1653;-70
2024/03/27 07:09:25;;;;;;;;;;;8.90;99.90;;;8.21;100.00;94906.75;4974827;28;2434;-69
2024/03/27 07:11:51;;;;;;;;;;;9.00;99.90;;;8.26;100.00;94910.63;4959411;28;3124;-69
2024/03/27 07:14:17;;;;;;;;;;;9.00;99.90;;;8.21;100.00;94914.50;4975328;28;2474;-69
2024/03/27 07:16:46;;;;;;;;;;;9.10;99.90;;;8.35;100.00;94922.03;4958709;28;1606;-69
2024/03/27 07:19:12;;;;;;;;;;;9.20;99.90;;;8.61;100.00;94921.81;4957788;28;1824;-69
2024/03/27 07:21:38;;;;;;;;;;;9.20;99.90;;;8.44;100.00;94917.94;4975202;28;1388;-70
2024/03/27 07:24:04;;;;;;;;;;;9.20;99.90;;;8.53;100.00;94931.00;4963613;28;1659;-69
2024/03/27 07:26:37;;;;;;;;;;;9.30;99.90;;;8.42;100.00;94930.19;4963679;28;1986;-69
2024/03/27 07:29:04;;;;;;;;;;;9.30;99.90;;;8.25;100.00;94934.00;4957615;28;2455;-69
2024/03/27 07:31:30;;;;;;;;;;;9.20;99.90;;;8.31;100.00;94936.94;4968574;28;1349;-69
2024/03/27 07:33:55;;;;;;;;;;;9.20;99.90;;;8.21;100.00;94938.59;4961397;28;1978;-70
2024/03/27 07:36:23;;;;;;;;;;;9.20;99.90;;;8.33;100.00;94939.41;4960743;28;1625;-69
2024/03/27 07:38:50;;;;;;;;;;;9.10;99.90;;;8.33;100.00;94927.31;4960654;28;1756;-70
2024/03/27 07:41:16;;;;;;;;;;;9.10;99.90;;;8.59;100.00;94927.09;4964372;28;1796;-70
2024/03/27 07:43:42;;;;;;;;;;;9.30;99.90;;;8.70;100.00;94932.28;4962508;28;2028;-70
2024/03/27 07:46:11;;;;;;;;;;;9.30;99.90;;;8.72;100.00;94922.63;4961873;28;1592;-69
2024/03/27 07:48:37;;;;;;;;;;;9.40;99.90;;;8.54;100.00;94916.31;4997133;28;1877;-69
2024/03/27 07:51:03;;;;;;;;;;;9.30;99.90;;;8.47;100.00;94917.72;4966097;28;1555;-69
2024/03/27 07:53:29;;;;;;;;;;;9.20;99.90;;;8.47;100.00;94909.97;4993128;28;1915;-69
2024/03/27 07:55:56;;;;;;;;;;;9.20;99.90;;;8.64;100.00;94924.16;4979430;28;1883;-69
2024/03/27 07:58:22;;;;;;;;;;;9.20;99.90;;;8.61;100.00;94920.06;4961981;28;3226;-69
2024/03/27 08:00:52;;;;;;;;;;;9.20;99.90;;;8.61;100.00;94925.22;4962342;28;1492;-70
2024/03/27 08:03:18;;;;;;;;;;;9.20;99.90;;;8.72;100.00;94937.34;4993937;28;2491;-70
2024/03/27 08:05:44;;;;;;;;;;;9.20;99.90;;;8.62;100.00;94931.22;4963621;28;1583;-69
2024/03/27 08:08:10;;;;;;;;;;;9.30;99.90;;;8.66;100.00;94923.09;4977428;28;1653;-69
2024/03/27 08:10:37;;;;;;;;;;;9.20;99.90;;;8.56;100.00;94929.94;4990843;28;1734;-70
2024/03/27 08:13:03;;;;;;;;;;;9.30;99.90;;;8.42;100.00;94940.53;4960475;28;1931;-70
2024/03/27 08:15:30;;;;;;;;;;;9.10;99.90;;;8.47;100.00;94941.81;4960999;28;1398;-69
2024/03/27 08:17:56;;;;;;;;;;;9.10;99.90;;;8.50;100.00;94945.91;4962043;28;2176;-69
2024/03/27 08:20:22;;;;;;;;;;;9.00;99.90;;;8.50;100.00;94946.72;4993292;28;1861;-69
2024/03/27 08:22:48;;;;;;;;;;;8.90;99.90;;;8.57;100.00;94947.09;4963302;28;1861;-69
2024/03/27 08:25:14;;;;;;;;;;;8.90;99.90;;;8.50;100.00;94951.06;4959699;28;2537;-69
2024/03/27 08:27:40;;;;;;;;;;;9.00;99.90;;;8.43;100.00;94948.13;4958762;28;1588;-70
2024/03/27 08:30:07;;;;;;;;;;;9.10;99.90;;;8.50;100.00;94957.06;4962186;28;1567;-69
2024/03/27 08:32:33;;;;;;;;;;;9.00;99.90;;;8.52;100.00;94954.38;4974853;28;2236;-69
2024/03/27 08:34:59;;;;;;;;;;;9.00;99.90;;;8.59;100.00;94950.38;4977569;28;1862;-70
2024/03/27 08:37:25;;;;;;;;;;;9.00;99.90;;;8.61;100.00;94948.50;4960592;28;1607;-69
2024/03/27 08:39:51;;;;;;;;;;;9.00;99.90;;;8.42;100.00;94949.09;4978730;28;3253;-69
2024/03/27 08:42:17;;;;;;;;;;;9.00;99.90;;;8.56;100.00;94956.59;4960023;28;1653;-69
2024/03/27 08:44:43;;;;;;;;;;;8.90;99.90;;;8.51;100.00;94950.97;4962779;28;2379;-70
2024/03/27 08:47:09;;;;;;;;;;;9.00;99.90;;;8.41;100.00;94957.78;4962183;28;1745;-69
2024/03/27 08:49:35;;;;;;;;;;;9.00;99.90;;;8.49;100.00;94957.19;4976703;28;1879;-69
2024/03/27 08:52:01;;;;;;;;;;;8.90;99.90;;;8.52;100.00;94967.31;4961167;28;1555;-69
2024/03/27 08:54:27;;;;;;;;;;;9.00;99.90;;;8.33;100.00;94975.59;4959773;28;1907;-69
2024/03/27 08:56:53;;;;;;;;;;;8.90;99.90;;;8.06;100.00;94976.72;4961140;28;1642;-69
2024/03/27 08:59:19;;;;;;;;;;;8.80;99.90;;;8.13;100.00;94972.75;4959906;28;2227;-70
2024/03/27 09:01:45;;;;;;;;;;;8.70;99.90;;;8.04;100.00;94980.34;4960763;28;1629;-69
2024/03/27 09:04:11;;;;;;;;;;;8.70;99.90;;;8.07;100.00;94987.88;4959254;28;1614;-70
2024/03/27 09:06:37;;;;;;;;;;;8.60;99.90;;;7.95;100.00;94989.59;4962938;28;1889;-70
2024/03/27 09:09:03;;;;;;;;;;;8.60;99.90;;;7.92;100.00;95006.16;4976013;28;1420;-69
2024/03/27 09:11:29;;;;;;;;;;;8.50;99.90;;;7.83;100.00;94987.94;4961338;28;2024;-70
2024/03/27 09:13:55;;;;;;;;;;;8.60;99.90;;;7.88;100.00;94998.75;4961591;28;1984;-69
2024/03/27 09:16:21;;;;;;;;;;;8.50;99.90;;;7.86;100.00;94996.25;4962618;28;1635;-69
2024/03/27 09:18:47;;;;;;;;;;;8.40;99.90;;;7.90;100.00;95002.84;4958346;28;1622;-69
2024/03/27 09:21:13;;;;;;;;;;;8.40;99.90;;;7.96;100.00;95012.75;4975815;28;1075;-69
2024/03/27 09:23:39;;;;;;;;;;;8.30;99.90;;;7.98;100.00;95007.44;4943638;28;1819;-69
2024/03/27 09:26:05;;;;;;;;;;;8.40;99.90;;;8.13;100.00;94995.19;4958408;28;3258;-69
2024/03/27 09:28:31;;;;;;;;;;;8.50;99.90;;;8.00;100.00;94987.50;4945799;28;1504;-69
2024/03/27 09:31:02;;;;;;;;;;;8.60;99.90;;;8.15;100.00;94993.31;4991172;28;1431;-69
2024/03/27 09:33:28;;;;;;;;;;;8.40;99.90;;;8.11;100.00;94992.69;4958873;28;1989;-69
2024/03/27 09:35:54;;;;;;;;;;;8.50;99.90;;;8.09;100.00;94993.75;4994697;28;1603;-69
2024/03/27 09:38:20;;;;;;;;;;;8.50;99.90;;;8.33;100.00;94978.19;4961795;28;1887;-69
2024/03/27 09:40:48;;;;;;;;;;;8.50;99.90;;;8.43;100.00;94968.81;4960033;28;2135;-69
2024/03/27 09:43:15;;;;;;;;;;;8.70;99.90;;;8.07;100.00;94990.44;4963981;28;1570;-69
2024/03/27 09:45:46;;;;;;;;;;;8.80;99.90;;;8.12;100.00;95006.47;4961852;28;1554;-69
2024/03/27 09:48:12;;;;;;;;;;;8.70;99.90;;;7.99;100.00;94998.78;4976575;28;1675;-69
2024/03/27 09:50:39;;;;;;;;;;;8.60;99.90;;;8.06;100.00;94999.97;4963750;28;1629;-69
2024/03/27 09:53:08;;;;;;;;;;;8.60;99.90;;;8.23;100.00;95006.47;4988717;28;1975;-70
2024/03/27 09:55:35;;;;;;;;;;;8.50;99.90;;;8.09;100.00;95010.06;4976664;28;2215;-69
2024/03/27 09:58:12;;;;;;;;;;;8.40;99.90;;;7.81;100.00;95028.53;4992553;28;1618;-69
2024/03/27 10:00:39;;;;;;;;;;;8.50;99.90;;;7.98;100.00;95017.78;4960409;28;1342;-70
2024/03/27 10:03:05;;;;;;;;;;;8.50;99.90;;;7.82;100.00;95018.06;4927743;28;2485;-69
2024/03/27 10:05:35;;;;;;;;;;;8.50;99.90;;;8.17;100.00;95025.84;4963129;28;1521;-69
2024/03/27 10:08:06;;;;;;;;;;;8.40;99.90;;;8.21;100.00;95026.44;4958997;28;1590;-69
2024/03/27 10:10:32;;;;;;;;;;;8.30;99.90;;;7.87;100.00;95007.44;4942789;28;1631;-69
2024/03/27 10:12:58;;;;;;;;;;;8.40;99.90;;;7.76;100.00;95036.63;4966861;28;1891;-69
2024/03/27 10:15:26;;;;;;;;;;;8.40;99.90;;;7.93;100.00;95037.97;4960784;28;1635;-69
2024/03/27 10:17:52;;;;;;;;;;;8.60;99.90;;;8.15;100.00;95040.63;4954931;28;3388;-69
2024/03/27 10:20:18;;;;;;;;;;;8.60;99.90;;;7.81;100.00;95042.25;4961931;28;1833;-69
2024/03/27 10:22:44;;;;;;;;;;;8.70;99.90;;;8.07;100.00;95037.78;4959368;28;1283;-69
2024/03/27 10:25:11;;;;;;;;;;;8.60;99.90;;;7.97;100.00;95044.56;4954754;28;2538;-69
2024/03/27 10:27:37;;;;;;;;;;;8.40;99.90;;;7.89;100.00;95046.84;4978687;28;1666;-69
2024/03/27 10:30:07;;;;;;;;;;;8.30;99.90;;;7.75;100.00;95045.28;4960893;28;1481;-69
2024/03/27 10:32:33;;;;;;;;;;;8.20;99.90;;;7.82;100.00;95045.66;4993900;28;1737;-69
2024/03/27 10:34:59;;;;;;;;;;;8.40;99.90;;;7.78;100.00;95050.25;4959689;28;1911;-70
2024/03/27 10:37:26;;;;;;;;;;;8.50;99.90;;;7.92;100.00;95042.31;4992488;28;1629;-69
2024/03/27 10:39:52;;;;;;;;;;;8.50;99.90;;;8.00;100.00;95049.50;4962535;28;1608;-69
2024/03/27 10:42:18;;;;;;;;;;;8.40;99.90;;;7.73;100.00;95055.72;4958563;28;2029;-69
2024/03/27 10:44:45;;;;;;;;;;;8.40;99.90;;;7.59;100.00;95063.63;4959962;28;1837;-69
2024/03/27 10:47:13;;;;;;;;;;;8.40;99.90;;;7.89;100.00;95068.38;4959223;28;1793;-69
2024/03/27 10:49:40;;;;;;;;;;;8.20;99.90;;;7.74;100.00;95075.44;4963618;28;1593;-69
2024/03/27 10:52:09;;;;;;;;;;;8.00;99.90;;;7.63;100.00;95067.63;4991782;28;1756;-69
2024/03/27 10:54:35;;;;;;;;;;;8.10;99.90;;;7.86;100.00;95049.69;4959608;28;1973;-69
2024/03/27 10:57:02;;;;;;;;;;;8.30;99.90;;;7.96;100.00;95076.50;4975978;28;3094;-69
2024/03/27 10:59:28;;;;;;;;;;;8.30;99.90;;;7.82;100.00;95067.13;4962104;28;1682;-69
2024/03/27 11:02:01;;;;;;;;;;;8.20;99.90;;;7.99;100.00;95070.28;4995086;28;1773;-70
2024/03/27 11:04:30;;;;;;;;;;;8.10;99.90;;;7.97;100.00;95073.78;4966092;28;1666;-68
2024/03/27 11:06:59;;;;;;;;;;;8.10;99.90;;;7.80;100.00;95074.19;4996398;28;1499;-69
2024/03/27 11:09:25;;;;;;;;;;;8.20;99.90;;;7.91;100.00;95076.00;4964010;28;1549;-70
2024/03/27 11:11:51;;;;;;;;;;;8.30;99.90;;;7.91;100.00;95082.00;4977778;28;2055;-69
2024/03/27 11:14:21;;;;;;;;;;;8.30;99.90;;;8.06;100.00;95079.25;4945978;28;1923;-70
2024/03/27 11:16:56;;;;;;;;;;;8.40;99.90;;;7.85;100.00;95087.59;4966589;28;1600;-69
2024/03/27 11:19:39;;;;;;;;;;;8.30;99.90;;;8.01;100.00;95078.75;4958853;28;1408;-69
2024/03/27 11:22:14;;;;;;;;;;;8.40;99.90;;;8.21;100.00;95075.53;4960855;28;1675;-69
2024/03/27 11:24:41;;;;;;;;;;;8.50;99.90;;;7.82;100.00;95090.38;4991854;28;1978;-69
2024/03/27 11:27:07;;;;;;;;;;;8.50;99.90;;;8.02;100.00;95091.53;4962426;28;1557;-69
2024/03/27 11:29:34;;;;;;;;;;;8.40;99.90;;;8.05;100.00;95090.50;4962861;28;1592;-69
2024/03/27 11:32:01;;;;;;;;;;;8.60;99.90;;;7.93;100.00;95094.78;4978605;28;1457;-69